KSPA/SPA METAR and TAF weather

Enter ICAO airport designator
Station Type Date Time Source
KSPA METAR 2019/06/18 14:55 UTC NOAA

KSPA 181455Z AUTO 23005KT 10SM OVC022 25/21 A3004 RMK AO2


Station Type Date Time Source
KSPA Decoded METAR 2019/06/18 14:55 UTC NOAA

Spartanburg Memorial, SC, United States (KSPA) 34-55N 081-57W
Jun 18, 2019 - 10:55 AM EDT / 2019.06.18 1455 UTC
Wind: from the SW (230 degrees) at 6 MPH (5 KT):0
Visibility: 10 mile(s):0
Sky conditions: overcast
Temperature: 77 F (25 C)
Dew Point: 69 F (21 C)
Relative Humidity: 78%
Pressure (altimeter): 30.04 in. Hg (1017 hPa)
ob: KSPA 181455Z AUTO 23005KT 10SM OVC022 25/21 A3004 RMK AO2
cycle: 15

Station Type Date Time Source
KSPA TAF UTC NOAA

Error!

Example: see airport list